createdAt,value
2018-01-15T10:52:48.325Z,83.36
2018-01-15T10:53:46.257Z,83.08
2018-01-15T10:54:46.007Z,82.89
2018-01-15T10:55:45.971Z,82.74
2018-01-15T10:56:45.964Z,82.55
2018-01-15T10:57:46.037Z,82.55
2018-01-15T10:58:45.952Z,82.84
2018-01-15T10:59:46.174Z,82.55
2018-01-15T11:00:46.166Z,81.98
2018-01-15T11:01:46.158Z,81.98
2018-01-15T11:02:47.100Z,82.08
2018-01-15T11:03:46.137Z,81.7
2018-01-15T11:04:46.133Z,82.08
2018-01-15T11:05:46.139Z,82.74
2018-01-15T11:06:46.114Z,82.84
2018-01-15T11:07:45.849Z,81.79
2018-01-15T11:08:45.893Z,81.7
2018-01-15T11:09:46.093Z,82.08
2018-01-15T11:10:45.825Z,81.7
2018-01-15T11:11:46.072Z,82.46
2018-01-15T11:12:45.808Z,81.88
2018-01-15T11:13:46.083Z,81.88
2018-01-15T11:14:45.794Z,81.32
2018-01-15T11:15:46.048Z,81.41
2018-01-15T11:16:46.032Z,81.13
2018-01-15T11:17:46.037Z,81.13
2018-01-15T11:18:46.019Z,80.27
2018-01-15T11:19:45.779Z,80.75
2018-01-15T11:20:46.009Z,81.41
2018-01-15T11:21:45.992Z,80.94
2018-01-15T11:22:45.993Z,80.75
2018-01-15T11:23:46.025Z,80.94
2018-01-15T11:24:45.977Z,80.75
2018-01-15T11:25:45.975Z,80.75
2018-01-15T11:26:45.728Z,80.27
2018-01-15T11:27:45.993Z,80.65
2018-01-15T11:28:45.940Z,80.65
2018-01-15T11:29:45.933Z,80.08
2018-01-15T11:30:45.967Z,79.74
2018-01-15T11:31:45.988Z,79.42
2018-01-15T11:32:45.920Z,79.14
2018-01-15T11:33:45.909Z,78.8
2018-01-15T11:34:45.911Z,79.08
2018-01-15T11:35:45.915Z,78.47
2018-01-15T11:36:45.646Z,78.19
2018-01-15T11:37:45.883Z,78.56
2018-01-15T11:38:45.876Z,79.42
2018-01-15T11:39:45.868Z,79.42
2018-01-15T11:40:45.914Z,79.52
2018-01-15T11:41:45.853Z,79.42
2018-01-15T11:42:45.592Z,79.23
2018-01-15T11:43:45.838Z,79.52
2018-01-15T11:44:45.830Z,79.14
2018-01-15T11:45:45.576Z,78.75
2018-01-15T11:46:45.835Z,78.85
2018-01-15T11:47:45.558Z,79.52
2018-01-15T11:48:45.557Z,79.04
2018-01-15T11:49:45.547Z,79.42
2018-01-15T11:50:45.790Z,79.42
2018-01-15T11:51:45.783Z,78.95
2018-01-15T11:52:45.773Z,78.56
2018-01-15T11:53:45.767Z,79.42
2018-01-15T11:54:45.513Z,79.33
2018-01-15T11:55:45.502Z,78.75
2018-01-15T11:56:45.746Z,78.95
2018-01-15T11:57:45.485Z,78.66
2018-01-15T11:58:45.730Z,78.56
2018-01-15T11:59:45.733Z,78.7
2018-01-15T12:00:45.472Z,78.42
2018-01-15T12:01:45.744Z,77.56
2018-01-15T12:02:45.729Z,77.56
2018-01-15T12:03:45.695Z,77.56
2018-01-15T12:04:45.445Z,78.13
2018-01-15T12:05:45.684Z,77.75
2018-01-15T12:06:45.691Z,77.94
2018-01-15T12:07:45.671Z,77.94
2018-01-15T12:08:45.700Z,77.66
2018-01-15T12:09:45.407Z,77.94
2018-01-15T12:10:45.652Z,78.7
2018-01-15T12:11:45.646Z,78.51
2018-01-15T12:12:45.645Z,78.51
2018-01-15T12:13:45.378Z,78.32
2018-01-15T12:14:45.625Z,78.32
2018-01-15T12:15:45.367Z,77.94
2018-01-15T12:16:45.629Z,77.94
2018-01-15T12:17:45.359Z,78.61
2018-01-15T12:18:45.346Z,78.61
2018-01-15T12:19:45.593Z,78.61
2018-01-15T12:20:45.336Z,78.8
2018-01-15T12:21:45.326Z,79.36
2018-01-15T12:22:45.652Z,78.89
2018-01-15T12:23:45.767Z,79.08
2018-01-15T12:24:45.562Z,79.36
2018-01-15T12:25:45.304Z,78.23
2018-01-15T12:26:45.301Z,78.51
2018-01-15T12:27:45.290Z,78.23
2018-01-15T12:28:45.283Z,77.84
2018-01-15T12:29:45.538Z,78.61
2018-01-15T12:30:45.274Z,79.17
2018-01-15T12:31:45.265Z,79.36
2018-01-15T12:32:45.512Z,78.99
2018-01-15T12:33:45.507Z,78.7
2018-01-15T12:34:45.498Z,79.36
2018-01-15T12:35:45.516Z,78.8
2018-01-15T12:36:45.254Z,79.36
2018-01-15T12:37:45.230Z,79.46
2018-01-15T12:38:48.238Z,79.17
2018-01-15T12:39:45.215Z,79.08
2018-01-15T12:40:45.462Z,79.65
2018-01-15T12:41:45.457Z,79.55
2018-01-15T12:42:45.203Z,79.65
2018-01-15T12:43:45.192Z,79.17
2018-01-15T12:44:45.191Z,78.13
2018-01-15T12:45:45.182Z,78.8
2018-01-15T12:46:45.429Z,78.8
2018-01-15T12:47:45.427Z,79.17
2018-01-15T12:48:45.412Z,78.42
2018-01-15T12:49:45.412Z,79.17
2018-01-15T12:50:45.400Z,78.99
2018-01-15T12:51:45.906Z,79.65
2018-01-15T12:52:45.968Z,79.12
2018-01-15T12:53:46.099Z,79.03
2018-01-15T12:54:45.389Z,78.74
2018-01-15T12:55:45.382Z,78.64
2018-01-15T12:56:45.382Z,78.45
2018-01-15T12:57:45.360Z,78.93
2018-01-15T12:58:45.106Z,79.41
2018-01-15T12:59:45.361Z,78.55
2018-01-15T13:00:45.088Z,78.36
2018-01-15T13:01:45.091Z,78.45
2018-01-15T13:02:45.340Z,78.36
2018-01-15T13:03:45.217Z,77.98
2018-01-15T13:04:45.710Z,78.45
2018-01-15T13:05:45.791Z,78.45
2018-01-15T13:06:45.304Z,78.36
2018-01-15T13:07:45.303Z,78.64
2018-01-15T13:08:45.335Z,78.17
2018-01-15T13:09:45.038Z,78.55
2018-01-15T13:10:45.029Z,78.08
2018-01-15T13:11:45.280Z,78.27
2018-01-15T13:12:45.268Z,78.17
2018-01-15T13:13:45.013Z,78.36
2018-01-15T13:14:45.007Z,78.55
2018-01-15T13:15:45.252Z,78.55
2018-01-15T13:16:45.244Z,78.64
2018-01-15T13:17:45.247Z,78.83
2018-01-15T13:18:45.590Z,79.6
2018-01-15T13:19:44.976Z,79.69
2018-01-15T13:20:45.225Z,78.83
2018-01-15T13:21:44.978Z,79.22
2018-01-15T13:22:45.210Z,79.22
2018-01-15T13:23:45.200Z,79.46
2018-01-15T13:24:44.944Z,80.22
2018-01-15T13:25:45.187Z,80.6
2018-01-15T13:26:45.180Z,80.32
2018-01-15T13:27:45.182Z,80.22
2018-01-15T13:28:45.184Z,80.13
2018-01-15T13:29:45.163Z,80.88
2018-01-15T13:30:45.157Z,80.79
2018-01-15T13:31:45.154Z,81.07
2018-01-15T13:32:44.904Z,80.98
2018-01-15T13:33:44.889Z,80.88
2018-01-15T13:34:45.133Z,81.07
2018-01-15T13:35:44.875Z,80.69
2018-01-15T13:36:44.866Z,80.83
2018-01-15T13:37:44.934Z,80.93
2018-01-15T13:38:45.117Z,80.88
2018-01-15T13:39:44.848Z,80.69
2018-01-15T13:40:45.251Z,80.35
2018-01-15T13:41:44.839Z,80.74
2018-01-15T13:42:44.829Z,80.07
2018-01-15T13:43:44.824Z,80.35
2018-01-15T13:44:44.818Z,80.6
2018-01-15T13:45:44.813Z,80.98
2018-01-15T13:46:44.808Z,80.88
2018-01-15T13:47:44.857Z,80.69
2018-01-15T13:48:44.794Z,81.36
2018-01-15T13:49:45.047Z,81.36
2018-01-15T13:50:45.045Z,81.55
2018-01-15T13:51:45.029Z,81.45
2018-01-15T13:52:45.021Z,82.03
2018-01-15T13:53:44.760Z,81.26
2018-01-15T13:54:44.955Z,81.55
2018-01-15T13:55:44.757Z,80.69
2018-01-15T13:56:44.758Z,80.98
2018-01-15T13:57:44.748Z,81.59
2018-01-15T13:58:44.734Z,81.3
2018-01-15T13:59:45.062Z,80.93
2018-01-15T14:00:44.718Z,80.93
2018-01-15T14:01:44.714Z,81.59
2018-01-15T14:02:44.959Z,81.17
2018-01-15T14:03:44.962Z,81.45
2018-01-15T14:04:44.701Z,81.4
2018-01-15T14:05:44.700Z,81.12
2018-01-15T14:06:44.931Z,81.49
2018-01-15T14:07:44.682Z,81.97
2018-01-15T14:08:44.670Z,81.21
2018-01-15T14:09:46.817Z,81.3
2018-01-15T14:10:44.912Z,82.03
2018-01-15T14:11:44.911Z,81.74
2018-01-15T14:12:44.644Z,81.84
2018-01-15T14:13:44.895Z,81.55
2018-01-15T14:14:44.639Z,81.78
2018-01-15T14:15:44.625Z,82.03
2018-01-15T14:16:44.616Z,82.4
2018-01-15T14:17:44.871Z,82.4
2018-01-15T14:18:44.862Z,82.45
2018-01-15T14:19:44.866Z,82.31
2018-01-15T14:20:44.600Z,82.12
2018-01-15T14:21:44.840Z,82.03
2018-01-15T14:22:44.588Z,81.45
2018-01-15T14:23:44.827Z,81.36
2018-01-15T14:24:44.775Z,81.65
2018-01-15T14:25:44.810Z,82.5
2018-01-15T14:26:44.856Z,82.31
2018-01-15T14:27:44.798Z,82.59
2018-01-15T14:28:44.799Z,82.31
2018-01-15T14:29:44.793Z,82.31
2018-01-15T14:30:44.556Z,82.69
2018-01-15T14:31:44.523Z,82.88
2018-01-15T14:32:44.781Z,83.07
2018-01-15T14:33:44.761Z,83.07
2018-01-15T14:34:44.504Z,83.07
2018-01-15T14:35:44.754Z,83.16
2018-01-15T14:36:44.565Z,83.26
2018-01-15T14:37:45.050Z,83.16
2018-01-15T14:38:44.489Z,83.45
2018-01-15T14:39:48.122Z,83.73
2018-01-15T14:40:44.727Z,84.01
2018-01-15T14:41:44.707Z,83.83
2018-01-15T14:42:44.699Z,84.11
2018-01-15T14:43:44.441Z,84.78
2018-01-15T14:44:44.685Z,84.49
2018-01-15T14:45:44.683Z,84.59
2018-01-15T14:46:44.429Z,84.49
2018-01-15T14:47:44.665Z,84.4
2018-01-15T14:48:44.413Z,85.16
2018-01-15T14:49:44.652Z,85.72
2018-01-15T14:50:44.397Z,85.25
2018-01-15T14:51:44.390Z,85.63
2018-01-15T14:52:44.394Z,84.97
2018-01-15T14:53:44.373Z,85.53
2018-01-15T14:54:44.621Z,85.63
2018-01-15T14:55:44.359Z,85.44
2018-01-15T14:56:44.606Z,85.25
2018-01-15T14:57:44.603Z,85.53
2018-01-15T14:58:44.597Z,85.63
2018-01-15T14:59:44.587Z,85.44
2018-01-15T15:00:44.581Z,86.11
2018-01-15T15:01:44.322Z,85.44
2018-01-15T15:02:44.572Z,85.06
2018-01-15T15:03:44.309Z,85.63
2018-01-15T15:04:44.302Z,85.91
2018-01-15T15:05:44.542Z,85.82
2018-01-15T15:06:44.541Z,85.63
2018-01-15T15:07:44.529Z,85.72
2018-01-15T15:08:44.276Z,85.82
2018-01-15T15:09:44.516Z,85.63
2018-01-15T15:10:44.276Z,85.91
2018-01-15T15:11:44.251Z,86.01
2018-01-15T15:12:44.578Z,85.72
2018-01-15T15:13:44.516Z,85.91
2018-01-15T15:14:44.229Z,86.2
2018-01-15T15:15:44.232Z,86.44
2018-01-15T15:16:44.482Z,86.58
2018-01-15T15:17:44.223Z,86.44
2018-01-15T15:18:44.469Z,86.3
2018-01-15T15:19:44.219Z,86.3
2018-01-15T15:20:44.439Z,86.87
2018-01-15T15:21:44.450Z,86.54
2018-01-15T15:22:44.478Z,86.35
2018-01-15T15:23:44.169Z,86.25
2018-01-15T15:24:44.424Z,86.3
2018-01-15T15:25:44.420Z,86.44
2018-01-15T15:26:44.447Z,86.49
2018-01-15T15:27:44.168Z,86.49
2018-01-15T15:28:44.140Z,86.25
2018-01-15T15:29:44.390Z,86.16
2018-01-15T15:30:44.118Z,86.54
2018-01-15T15:31:44.372Z,86.54
2018-01-15T15:32:44.359Z,86.3
2018-01-15T15:33:44.360Z,86.44
2018-01-15T15:34:44.344Z,87.01
2018-01-15T15:35:44.359Z,86.82
2018-01-15T15:36:44.075Z,86.82
2018-01-15T15:37:44.322Z,87.01
2018-01-15T15:38:44.345Z,86.72
2018-01-15T15:39:44.315Z,86.82
2018-01-15T15:40:46.159Z,87.01
2018-01-15T15:41:44.054Z,86.82
2018-01-15T15:42:44.033Z,87.11
2018-01-15T15:43:44.289Z,87.3
2018-01-15T15:44:44.036Z,86.91
2018-01-15T15:45:44.019Z,87.3
2018-01-15T15:46:43.998Z,87.2
2018-01-15T15:47:44.254Z,87.11
2018-01-15T15:48:44.244Z,87.49
2018-01-15T15:49:44.315Z,87.96
2018-01-15T15:50:44.252Z,87.49
2018-01-15T15:51:44.221Z,87.68
2018-01-15T15:52:43.961Z,87.68
2018-01-15T15:53:43.949Z,87.87
2018-01-15T15:54:44.199Z,87.58
2018-01-15T15:55:43.937Z,87.77
2018-01-15T15:56:44.190Z,87.3
2018-01-15T15:57:44.168Z,87.58
2018-01-15T15:58:44.158Z,87.77
2018-01-15T15:59:43.900Z,87.68
2018-01-15T16:00:43.899Z,87.39
2018-01-15T16:01:44.142Z,87.3
2018-01-15T16:02:43.886Z,87.49
2018-01-15T16:03:44.129Z,87.77
2018-01-15T16:04:43.863Z,87.77
2018-01-15T16:05:44.116Z,87.96
2018-01-15T16:06:43.848Z,88.24
2018-01-15T16:07:43.847Z,88.06
2018-01-15T16:08:44.088Z,87.49
2018-01-15T16:09:44.079Z,87.3
2018-01-15T16:10:44.076Z,87.39
2018-01-15T16:11:44.066Z,87.68
2018-01-15T16:12:43.806Z,87.49
2018-01-15T16:13:44.047Z,87.77
2018-01-15T16:14:44.043Z,87.3
2018-01-15T16:15:44.037Z,87.3
2018-01-15T16:16:43.782Z,87.3
2018-01-15T16:17:44.020Z,87.77
2018-01-15T16:18:43.771Z,87.68
2018-01-15T16:19:44.013Z,87.77
2018-01-15T16:20:43.746Z,87.49
2018-01-15T16:21:44.005Z,87.87
2018-01-15T16:22:43.984Z,87.87
2018-01-15T16:23:43.973Z,87.77
2018-01-15T16:24:43.718Z,87.11
2018-01-15T16:25:43.719Z,87.49
2018-01-15T16:26:43.721Z,86.82
2018-01-15T16:27:43.694Z,86.63
2018-01-15T16:28:43.948Z,87.3
2018-01-15T16:29:43.934Z,87.2
2018-01-15T16:30:43.670Z,87.11
2018-01-15T16:31:43.955Z,87.3
2018-01-15T16:32:43.937Z,87.01
2018-01-15T16:33:43.919Z,87.2
2018-01-15T16:34:43.902Z,87.77
2018-01-15T16:35:43.901Z,87.58
2018-01-15T16:36:43.880Z,87.39
2018-01-15T16:37:43.875Z,87.2
2018-01-15T16:38:43.866Z,87.49
2018-01-15T16:39:43.614Z,87.87
2018-01-15T16:40:43.879Z,88.24
2018-01-15T16:41:48.955Z,88.62
2018-01-15T16:42:43.587Z,88.53
2018-01-15T16:43:43.841Z,88.43
2018-01-15T16:44:43.856Z,88.43
2018-01-15T16:45:43.817Z,88.53
2018-01-15T16:46:43.557Z,89.48
2018-01-15T16:47:43.873Z,89.39
2018-01-15T16:48:43.543Z,90.14
2018-01-15T16:49:43.539Z,89.95
2018-01-15T16:50:43.532Z,90.33
2018-01-15T16:51:43.790Z,90.14
2018-01-15T16:52:43.766Z,90.05
2018-01-15T16:53:43.507Z,89.95
2018-01-15T16:54:43.750Z,89.2
2018-01-15T16:55:43.500Z,89.29
2018-01-15T16:56:43.737Z,89.1
2018-01-15T16:57:43.735Z,88.81
2018-01-15T16:58:43.734Z,88.81
2018-01-15T16:59:43.464Z,88.62
2018-01-15T17:00:43.470Z,88.43
2018-01-15T17:01:43.446Z,88.15
2018-01-15T17:02:43.698Z,87.87
2018-01-15T17:03:43.445Z,87.96
2018-01-15T17:04:43.675Z,87.87
2018-01-15T17:05:43.668Z,87.2
2018-01-15T17:06:43.415Z,87.3
2018-01-15T17:07:43.420Z,87.49
2018-01-15T17:08:43.395Z,87.96
2018-01-15T17:09:43.394Z,87.2
2018-01-15T17:10:43.401Z,87.01
2018-01-15T17:11:43.630Z,86.68
2018-01-15T17:12:43.371Z,86.77
2018-01-15T17:13:43.639Z,86.63
2018-01-15T17:14:43.609Z,86.63
2018-01-15T17:15:43.347Z,86.49
2018-01-15T17:16:43.605Z,85.72
2018-01-15T17:17:43.601Z,85.72
2018-01-15T17:18:43.578Z,85.78
2018-01-15T17:19:43.573Z,86.11
2018-01-15T17:20:43.311Z,85.97
2018-01-15T17:21:43.301Z,86.07
2018-01-15T17:22:43.550Z,85.72
2018-01-15T17:23:43.611Z,85.82
2018-01-15T17:24:43.282Z,85.87
2018-01-15T17:25:43.569Z,86.16
2018-01-15T17:26:44.261Z,86.16
2018-01-15T17:27:44.767Z,85.87
2018-01-15T17:28:43.268Z,85.4
2018-01-15T17:29:43.543Z,85.78
2018-01-15T17:30:43.484Z,85.72
2018-01-15T17:31:43.232Z,85.97
2018-01-15T17:32:43.369Z,85.72
2018-01-15T17:33:43.463Z,85.63
2018-01-15T17:34:43.459Z,85.87
2018-01-15T17:35:43.197Z,85.59
2018-01-15T17:36:43.444Z,84.92
2018-01-15T17:37:44.386Z,85.78
2018-01-15T17:38:43.435Z,85.97
2018-01-15T17:39:43.417Z,85.68
2018-01-15T17:40:43.411Z,85.87
2018-01-15T17:41:43.403Z,86.16
2018-01-15T17:42:43.404Z,85.97
2018-01-15T17:43:43.144Z,85.49
2018-01-15T17:44:43.382Z,85.78
2018-01-15T17:45:43.122Z,86.25
2018-01-15T17:46:43.122Z,86.25
2018-01-15T17:47:43.122Z,86.07
2018-01-15T17:48:43.359Z,86.44
2018-01-15T17:49:43.349Z,86.91
2018-01-15T17:50:43.096Z,87.11
2018-01-15T17:51:43.335Z,86.44
2018-01-15T17:52:43.371Z,86.16
2018-01-15T17:53:43.067Z,85.78
2018-01-15T17:54:43.057Z,85.97
2018-01-15T17:55:43.344Z,86.82
2018-01-15T17:56:43.045Z,86.35
2018-01-15T17:57:43.294Z,86.07
2018-01-15T17:58:43.299Z,85.97
2018-01-15T17:59:43.025Z,86.16
2018-01-15T18:00:43.014Z,86.44
2018-01-15T18:01:43.005Z,86.44
2018-01-15T18:02:43.278Z,86.63
2018-01-15T18:03:43.251Z,85.78
2018-01-15T18:04:43.237Z,85.68
2018-01-15T18:05:43.246Z,85.97
2018-01-15T18:06:43.225Z,85.78
2018-01-15T18:07:43.226Z,85.78
2018-01-15T18:08:42.953Z,85.3
2018-01-15T18:09:42.948Z,85.3
2018-01-15T18:10:42.941Z,85.02
2018-01-15T18:11:42.933Z,85.49
2018-01-15T18:12:42.922Z,84.83
2018-01-15T18:13:43.167Z,85.3
2018-01-15T18:14:42.911Z,85.06
2018-01-15T18:15:43.153Z,84.64
2018-01-15T18:16:42.896Z,84.78
2018-01-15T18:17:43.145Z,85.16
2018-01-15T18:18:42.880Z,84.87
2018-01-15T18:19:42.872Z,84.59
2018-01-15T18:20:43.119Z,84.36
2018-01-15T18:21:42.857Z,84.78
2018-01-15T18:22:42.851Z,84.59
2018-01-15T18:23:43.111Z,84.49
2018-01-15T18:24:42.851Z,84.83
2018-01-15T18:25:43.080Z,85.25
2018-01-15T18:26:42.822Z,85.78
2018-01-15T18:27:42.817Z,84.92
2018-01-15T18:28:43.054Z,85.44
2018-01-15T18:29:43.048Z,85.72
2018-01-15T18:30:43.041Z,85.44
2018-01-15T18:31:42.783Z,84.97
2018-01-15T18:32:43.028Z,85.16
2018-01-15T18:33:43.029Z,84.87
2018-01-15T18:34:42.762Z,85.16
2018-01-15T18:35:43.010Z,84.4
2018-01-15T18:36:42.995Z,84.78
2018-01-15T18:37:42.990Z,84.49
2018-01-15T18:38:42.986Z,84.78
2018-01-15T18:39:42.977Z,85.35
2018-01-15T18:40:42.718Z,85.53
2018-01-15T18:41:42.712Z,85.35
2018-01-15T18:42:42.970Z,85.25
2018-01-15T18:43:42.948Z,85.63
2018-01-15T18:44:42.940Z,85.91
2018-01-15T18:45:42.933Z,86.01
2018-01-15T18:46:42.928Z,85.82
2018-01-15T18:47:42.922Z,85.72
2018-01-15T18:48:42.915Z,86.3
2018-01-15T18:49:42.656Z,86.39
2018-01-15T18:50:42.900Z,86.2
2018-01-15T18:51:42.890Z,86.49
2018-01-15T18:52:42.883Z,86.2
2018-01-15T18:53:42.637Z,86.49
2018-01-15T18:54:42.615Z,85.82
2018-01-15T18:55:42.608Z,86.01
2018-01-15T18:56:42.854Z,85.25
2018-01-15T18:57:42.845Z,85.44
2018-01-15T18:58:42.840Z,85.44
2018-01-15T18:59:42.592Z,85.35
2018-01-15T19:00:42.575Z,86.3
2018-01-15T19:01:42.822Z,86.87
2018-01-15T19:02:42.574Z,87.24
2018-01-15T19:03:42.806Z,87.53
2018-01-15T19:04:42.562Z,87.53
2018-01-15T19:05:42.807Z,87.62
2018-01-15T19:06:42.785Z,87.72
2018-01-15T19:07:42.794Z,87.82
2018-01-15T19:08:42.772Z,87.91
2018-01-15T19:09:42.510Z,88.01
2018-01-15T19:10:42.504Z,88.39
2018-01-15T19:11:42.500Z,88.39
2018-01-15T19:12:42.738Z,88.76
2018-01-15T19:13:42.985Z,89.9
2018-01-15T19:14:42.743Z,89.62
2018-01-15T19:15:42.726Z,89.14
2018-01-15T19:16:42.710Z,89.43
2018-01-15T19:17:42.461Z,90.19
2018-01-15T19:18:42.444Z,90.28
2018-01-15T19:19:42.712Z,90.09
2018-01-15T19:20:42.445Z,89.67
2018-01-15T19:21:42.679Z,90.09
2018-01-15T19:22:42.674Z,90.09
2018-01-15T19:23:42.410Z,90.19
2018-01-15T19:24:42.400Z,90.19
2018-01-15T19:25:42.680Z,90.43
2018-01-15T19:26:42.664Z,90.47
2018-01-15T19:27:42.640Z,90.57
2018-01-15T19:28:42.666Z,90.19
2018-01-15T19:29:42.372Z,90.66
2018-01-15T19:30:42.625Z,90.95
2018-01-15T19:31:42.355Z,91.8
2018-01-15T19:32:42.613Z,91.33
2018-01-15T19:33:42.366Z,91.52
2018-01-15T19:34:42.353Z,91.71
2018-01-15T19:35:42.606Z,92.09
2018-01-15T19:36:42.583Z,92.66
2018-01-15T19:37:42.315Z,93.04
2018-01-15T19:38:42.557Z,93.23
2018-01-15T19:39:42.324Z,93.7
2018-01-15T19:40:42.551Z,94.27
2018-01-15T19:41:42.538Z,94.74
2018-01-15T19:42:42.293Z,95.03
2018-01-15T19:43:47.790Z,94.65
2018-01-15T19:44:42.515Z,95.22
2018-01-15T19:45:42.529Z,95.31
2018-01-15T19:46:42.504Z,96.45
2018-01-15T19:47:42.499Z,96.36
2018-01-15T19:48:42.476Z,96.26
2018-01-15T19:49:42.509Z,97.22
2018-01-15T19:50:42.242Z,97.12
2018-01-15T19:51:42.481Z,97.5
2018-01-15T19:52:42.463Z,97.5
2018-01-15T19:53:42.234Z,98.45
2018-01-15T19:54:42.451Z,98.45
2018-01-15T19:55:42.482Z,99.02
2018-01-15T19:56:42.447Z,99.21
2018-01-15T19:57:42.411Z,99.99
2018-01-15T19:58:42.419Z,99.99
2018-01-15T19:59:42.434Z,99.99
2018-01-15T20:00:42.163Z,99.99
2018-01-15T20:01:42.386Z,99.99
2018-01-15T20:02:42.131Z,99.99
2018-01-15T20:03:42.407Z,99.99
2018-01-15T20:04:42.125Z,99.99
2018-01-15T20:05:42.385Z,99.99
2018-01-15T20:06:42.368Z,99.99
2018-01-15T20:07:42.380Z,99.99
2018-01-15T20:08:42.406Z,99.99
2018-01-15T20:09:42.327Z,99.99
2018-01-15T20:10:42.384Z,99.99
2018-01-15T20:11:42.080Z,99.99
2018-01-15T20:12:42.322Z,99.99
2018-01-15T20:13:42.311Z,99.99
2018-01-15T20:14:42.303Z,99.99
2018-01-15T20:15:42.057Z,99.99
2018-01-15T20:16:42.090Z,99.99
2018-01-15T20:17:42.302Z,99.99
2018-01-15T20:18:42.039Z,99.99
2018-01-15T20:19:42.286Z,99.99
2018-01-15T20:20:42.296Z,99.99
2018-01-15T20:21:41.995Z,99.99
2018-01-15T20:22:42.009Z,99.99
2018-01-15T20:23:42.275Z,99.99
2018-01-15T20:24:42.252Z,99.99
2018-01-15T20:25:42.360Z,99.99
2018-01-15T20:26:41.956Z,99.99
2018-01-15T20:27:42.237Z,99.99
2018-01-15T20:28:42.219Z,99.99
2018-01-15T20:29:41.919Z,99.99
2018-01-15T20:30:42.195Z,99.99
2018-01-15T20:31:42.203Z,99.99
2018-01-15T20:32:42.177Z,99.99
2018-01-15T20:33:42.180Z,99.99
2018-01-15T20:34:42.188Z,99.99
2018-01-15T20:35:42.166Z,99.99
2018-01-15T20:36:41.872Z,99.99
2018-01-15T20:37:41.872Z,99.99
2018-01-15T20:38:41.867Z,99.99
2018-01-15T20:39:42.150Z,99.99
2018-01-15T20:40:42.113Z,99.99
2018-01-15T20:41:42.139Z,99.99
2018-01-15T20:42:42.116Z,99.99
2018-01-15T20:43:42.101Z,99.99
2018-01-15T20:44:42.446Z,99.99
2018-01-15T20:45:41.830Z,99.99
2018-01-15T20:46:42.090Z,99.99
2018-01-15T20:47:41.824Z,99.99
2018-01-15T20:48:42.084Z,99.99
2018-01-15T20:49:42.044Z,99.99
2018-01-15T20:50:42.074Z,99.99
2018-01-15T20:51:42.051Z,99.99
2018-01-15T20:52:42.047Z,99.99
2018-01-15T20:53:42.040Z,99.99
2018-01-15T20:54:41.733Z,99.99
2018-01-15T20:55:42.032Z,99.99
2018-01-15T20:56:42.019Z,99.99
2018-01-15T20:57:41.728Z,99.99
2018-01-15T20:58:41.748Z,99.99
2018-01-15T20:59:41.706Z,99.99
2018-01-15T21:00:41.973Z,99.99
2018-01-15T21:01:41.720Z,99.99
2018-01-15T21:02:41.969Z,99.99
2018-01-15T21:03:41.700Z,99.99
2018-01-15T21:04:41.697Z,99.99
2018-01-15T21:05:41.924Z,99.99
2018-01-15T21:06:41.912Z,99.99
2018-01-15T21:07:41.651Z,99.99
2018-01-15T21:08:41.915Z,99.99
2018-01-15T21:09:41.912Z,99.99
2018-01-15T21:10:41.905Z,99.99
2018-01-15T21:11:41.634Z,99.99
2018-01-15T21:12:41.896Z,99.99
2018-01-15T21:13:41.615Z,99.99
2018-01-15T21:14:42.881Z,99.99
2018-01-15T21:15:41.612Z,99.99
2018-01-15T21:16:41.850Z,99.99
2018-01-15T21:17:41.598Z,99.99
2018-01-15T21:18:41.603Z,99.99
2018-01-15T21:19:41.854Z,99.99
2018-01-15T21:20:41.849Z,99.99
2018-01-15T21:21:41.827Z,99.99
2018-01-15T21:22:41.560Z,99.99
2018-01-15T21:23:41.541Z,99.99
2018-01-15T21:24:41.558Z,99.99
2018-01-15T21:25:41.800Z,99.99
2018-01-15T21:26:41.543Z,99.99
2018-01-15T21:27:41.530Z,99.99
2018-01-15T21:28:41.782Z,99.99
2018-01-15T21:29:41.737Z,99.99
2018-01-15T21:30:41.756Z,99.99
2018-01-15T21:31:41.507Z,99.99
2018-01-15T21:32:41.476Z,99.99
2018-01-15T21:33:41.706Z,99.99
2018-01-15T21:34:41.722Z,99.99
2018-01-15T21:35:41.483Z,99.99
2018-01-15T21:36:41.700Z,99.99
2018-01-15T21:37:41.707Z,99.99
2018-01-15T21:38:41.691Z,99.99
2018-01-15T21:39:41.680Z,99.99
2018-01-15T21:40:41.665Z,99.99
2018-01-15T21:41:41.402Z,99.99
2018-01-15T21:42:41.396Z,99.99
2018-01-15T21:43:41.398Z,99.99
2018-01-15T21:44:42.786Z,99.99
2018-01-15T21:45:41.649Z,99.99
2018-01-15T21:46:41.618Z,99.99
2018-01-15T21:47:41.639Z,99.99
2018-01-15T21:48:41.617Z,99.99
2018-01-15T21:49:41.605Z,99.99
2018-01-15T21:50:41.594Z,99.99
2018-01-15T21:51:41.326Z,99.99
2018-01-15T21:52:41.578Z,99.99
2018-01-15T21:53:41.575Z,99.99
2018-01-15T21:54:41.317Z,99.99
2018-01-15T21:55:41.560Z,99.99
2018-01-15T21:56:41.562Z,99.99
2018-01-15T21:57:41.601Z,99.99
2018-01-15T21:58:41.538Z,99.99
2018-01-15T21:59:41.511Z,99.99
2018-01-15T22:00:41.250Z,99.99
2018-01-15T22:01:41.511Z,99.99
2018-01-15T22:02:41.246Z,99.99
2018-01-15T22:03:41.519Z,99.99
2018-01-15T22:04:41.514Z,99.99
2018-01-15T22:05:41.216Z,99.99
2018-01-15T22:06:41.220Z,99.99
2018-01-15T22:07:41.216Z,99.99
2018-01-15T22:08:41.205Z,99.99
2018-01-15T22:09:41.197Z,99.99
2018-01-15T22:10:41.180Z,99.99
2018-01-15T22:11:41.427Z,99.99
2018-01-15T22:12:41.427Z,99.99
2018-01-15T22:13:41.421Z,99.99
2018-01-15T22:14:41.414Z,99.99
2018-01-15T22:15:41.415Z,99.99
2018-01-15T22:16:41.753Z,99.99
2018-01-15T22:17:41.565Z,99.99
2018-01-15T22:18:41.608Z,99.99
2018-01-15T22:19:41.613Z,99.99
2018-01-15T22:20:41.450Z,99.99
2018-01-15T22:21:41.517Z,99.99
2018-01-15T22:22:41.499Z,99.99
2018-01-15T22:23:41.471Z,99.99
2018-01-15T22:24:41.449Z,99.99
2018-01-15T22:25:41.494Z,99.99
2018-01-15T22:26:41.311Z,99.99
2018-01-15T22:27:41.081Z,99.99
2018-01-15T22:28:41.108Z,99.99
2018-01-15T22:29:41.368Z,99.99
2018-01-15T22:30:41.183Z,99.99
2018-01-15T22:31:41.388Z,99.99
2018-01-15T22:32:41.411Z,99.99
2018-01-15T22:33:41.082Z,99.99
2018-01-15T22:34:41.064Z,99.99
2018-01-15T22:35:41.040Z,99.99
2018-01-15T22:36:41.080Z,99.99
2018-01-15T22:37:41.327Z,99.99
2018-01-15T22:38:41.468Z,99.99
2018-01-15T22:39:41.263Z,99.99
2018-01-15T22:40:41.058Z,99.99
2018-01-15T22:41:41.300Z,99.99
2018-01-15T22:42:41.358Z,99.99
2018-01-15T22:43:41.049Z,99.99
2018-01-15T22:44:40.934Z,99.99
2018-01-15T22:45:42.979Z,99.99
2018-01-15T22:46:41.174Z,99.99
2018-01-15T22:47:40.917Z,99.99
2018-01-15T22:48:40.904Z,99.99
2018-01-15T22:49:40.899Z,99.99
2018-01-15T22:50:41.142Z,99.99
2018-01-15T22:51:41.161Z,99.99
2018-01-15T22:52:40.881Z,99.99
2018-01-15T22:53:41.121Z,99.99
2018-01-15T22:54:40.864Z,99.99
2018-01-15T22:55:40.853Z,99.99
2018-01-15T22:56:41.116Z,99.99
2018-01-15T22:57:41.094Z,99.99
2018-01-15T22:58:41.086Z,99.99
2018-01-15T22:59:41.077Z,99.99
2018-01-15T23:00:40.835Z,99.99
2018-01-15T23:01:40.812Z,99.99
2018-01-15T23:02:41.065Z,99.99
2018-01-15T23:03:40.799Z,99.99
2018-01-15T23:04:40.791Z,99.99
2018-01-15T23:05:41.035Z,99.99
2018-01-15T23:06:41.028Z,99.99
2018-01-15T23:07:40.770Z,99.99
2018-01-15T23:08:41.022Z,99.99
2018-01-15T23:09:40.758Z,99.99
2018-01-15T23:10:40.999Z,99.99
2018-01-15T23:11:40.989Z,99.99
2018-01-15T23:12:40.984Z,99.99
2018-01-15T23:13:40.726Z,99.99
2018-01-15T23:14:40.975Z,99.99
2018-01-15T23:15:40.716Z,99.99
2018-01-15T23:16:40.706Z,99.99
2018-01-15T23:17:40.949Z,99.99
2018-01-15T23:18:40.690Z,99.99
2018-01-15T23:19:40.947Z,99.99
2018-01-15T23:20:40.937Z,99.99
2018-01-15T23:21:40.933Z,99.99
2018-01-15T23:22:40.698Z,99.99
2018-01-15T23:23:40.911Z,99.99
2018-01-15T23:24:40.914Z,99.99
2018-01-15T23:25:40.918Z,99.99
2018-01-15T23:26:40.939Z,99.99
2018-01-15T23:27:40.893Z,99.99
2018-01-15T23:28:40.885Z,99.99
2018-01-15T23:29:40.624Z,99.99
2018-01-15T23:30:40.882Z,99.99
2018-01-15T23:31:40.875Z,99.99
2018-01-15T23:32:40.859Z,99.99
2018-01-15T23:33:40.597Z,99.99
2018-01-15T23:34:40.593Z,99.99
2018-01-15T23:35:40.831Z,99.99
2018-01-15T23:36:40.572Z,99.99
2018-01-15T23:37:40.824Z,99.99
2018-01-15T23:38:40.813Z,99.99
2018-01-15T23:39:40.820Z,99.99
2018-01-15T23:40:40.829Z,99.99
2018-01-15T23:41:40.534Z,99.99
2018-01-15T23:42:40.775Z,99.99
2018-01-15T23:43:40.777Z,99.99
2018-01-15T23:44:40.512Z,99.99
2018-01-15T23:45:40.755Z,99.99
2018-01-15T23:46:40.756Z,99.99